Palm Harbor, Florida
Current Conditions -  °F | °C
As of 2:15 PM on Tuesday 21 Oct 2014 (Local Time) from KCLW Reporting Station
Clear Clear  
Wind Chill: 79°   Ceiling: Unl
Heat Index: 80°   Visibility: 10mi
Dew Point: 63°   Wind: 6mph
Humidity: 57%   Direction: 330°NNW
Pressure: 29.93"   Gusts: NA
Location:  28.08°N, 82.74°W
Report Text: KCLW 211815Z AUTO 33005KT 10SM CLR 26/17 A2993 RMK AO2
Loading
Personal Weather Stations






























Interactive Weather Map New forecast layout! Learn more

10-Day Weather Forecast

Advertisements
Track Severe Weather on mobile